^^
Station Historical Data
Daily Summary for November 26, 2017 Units:  Metric    English   Both
« Previous Day
Next Day »
Daily Weekly Monthly Yearly Custom
  High: Low: Average:
Temperature: 33.3 °C 17.7 °C 24.9 °C
Dew Point: 7.2 °C -4.3 °C 0.4 °C
Humidity: 36% 9% 23%
Wind Speed: 25.9km/h 0km/h 10.1km/h
Wind Gust: 29km/h - -
Wind- - SSW
Pressure: 1011.1 hPa 1007.3 hPa -
Precipitation: 0 mm    
Historical Graphs
 
 
Tabular Data for November 26, 2017
Time Temperature Dew Point Pressure Wind Wind Speed Wind Gust Humidity Rainfall Rate (Hourly) solar Conditions
02:16 20.9 °C 3.1 °C 1010 hPa SSW 9.7 km/h 12.9 km/h 31% 0 mm 0.0 W/m2
02:21 20.9 °C 3.1 °C 1009.7 hPa SSW 4.7 km/h 17.7 km/h 31% 0 mm 0.0 W/m2
02:26 21 °C 3.2 °C 1009.7 hPa SSW 14.3 km/h 17.7 km/h 31% 0 mm 0.0 W/m2
02:31 21 °C 3.2 °C 1009.7 hPa SSW 13 km/h 17.7 km/h 31% 0 mm 0.0 W/m2
02:41 20.9 °C 3.1 °C 1009.7 hPa SSW 13 km/h 17.7 km/h 31% 0 mm 0.0 W/m2
02:46 20.9 °C 3.1 °C 1009.7 hPa SSW 20.9 km/h 22.5 km/h 31% 0 mm 0.0 W/m2
02:51 20.7 °C 3 °C 1009.7 hPa SSW 11.1 km/h 12.9 km/h 31% 0 mm 0.0 W/m2
02:56 20.4 °C 3.1 °C 1009.7 hPa SSW 9.7 km/h 17.7 km/h 32% 0 mm 0.0 W/m2
03:01 20.3 °C 3.1 °C 1009.7 hPa SSW 9.7 km/h 20.9 km/h 32% 0 mm 0.0 W/m2
03:06 20.2 °C 3 °C 1009.7 hPa SSW 14.3 km/h 19.3 km/h 32% 0 mm 0.0 W/m2
03:16 20.1 °C 2.9 °C 1009.7 hPa SSW 7.9 km/h 16.1 km/h 32% 0 mm 0.0 W/m2
03:21 20.1 °C 2.9 °C 1009.7 hPa SSW 7.9 km/h 12.9 km/h 32% 0 mm 0.0 W/m2
03:26 20 °C 2.8 °C 1010 hPa SSW 7.9 km/h 12.9 km/h 32% 0 mm 0.0 W/m2
03:31 19.9 °C 2.7 °C 1009.7 hPa SSW 9.7 km/h 12.9 km/h 32% 0 mm 0.0 W/m2
03:41 19.6 °C 2.9 °C 1010 hPa SSW 7.9 km/h 11.3 km/h 33% 0 mm 0.0 W/m2
03:46 19.4 °C 2.7 °C 1010 hPa SSW 7.9 km/h 9.7 km/h 33% 0 mm 0.0 W/m2
03:51 19.4 °C 2.7 °C 1010 hPa SSW 7.9 km/h 12.9 km/h 33% 0 mm 0.0 W/m2
03:56 19.4 °C 2.7 °C 1010 hPa SSW 7.9 km/h 9.7 km/h 33% 0 mm 0.0 W/m2
04:01 19.2 °C 2.5 °C 1010 hPa SSW 9.7 km/h 9.7 km/h 33% 0 mm 0.0 W/m2
04:11 18.8 °C 2.6 °C 1010 hPa SSW 6.4 km/h 8 km/h 34% 0 mm 0.0 W/m2
04:16 18.7 °C 2.5 °C 1010 hPa SSW 7.9 km/h 11.3 km/h 34% 0 mm 0.0 W/m2
04:21 18.7 °C 2.9 °C 1010 hPa SSW 7.9 km/h 9.7 km/h 35% 0 mm 0.0 W/m2
04:26 18.5 °C 2.7 °C 1010 hPa SSW 7.9 km/h 9.7 km/h 35% 0 mm 0.0 W/m2
04:31 18.4 °C 2.7 °C 1010 hPa SSW 4.7 km/h 8 km/h 35% 0 mm 0.0 W/m2
04:36 18.3 °C 2.6 °C 1010 hPa SSW 7.9 km/h 9.7 km/h 35% 0 mm 0.0 W/m2
04:42 18.3 °C 2.6 °C 1010 hPa SSW 7.9 km/h 9.7 km/h 35% 0 mm 0.0 W/m2
04:52 18.3 °C 2.6 °C 1010 hPa SSW 7.9 km/h 8 km/h 35% 0 mm 0.0 W/m2
04:57 18.3 °C 2.6 °C 1010 hPa SSW 6.4 km/h 8 km/h 35% 0 mm 0.0 W/m2
05:02 18.3 °C 2.6 °C 1010 hPa SSW 6.4 km/h 9.7 km/h 35% 0 mm 0.0 W/m2
05:07 18.4 °C 2.7 °C 1010 hPa SSW 6.4 km/h 8 km/h 35% 0 mm 0.0 W/m2
05:12 18.4 °C 2.3 °C 1010 hPa SSW 7.9 km/h 8 km/h 34% 0 mm 0.0 W/m2
05:17 18.4 °C 2.3 °C 1010 hPa SSW 9.7 km/h 9.7 km/h 34% 0 mm 0.0 W/m2
05:22 18.3 °C 2.2 °C 1010 hPa SSW 7.9 km/h 9.7 km/h 34% 0 mm 0.0 W/m2
05:28 18.2 °C 2.5 °C 1010 hPa SSW 9.7 km/h 11.3 km/h 35% 0 mm 0.0 W/m2
05:33 18.2 °C 2.5 °C 1010 hPa SSW 7.9 km/h 11.3 km/h 35% 0 mm 0.0 W/m2
05:38 18.1 °C 2.4 °C 1010 hPa SSW 9.7 km/h 12.9 km/h 35% 0 mm 0.0 W/m2
05:48 18.1 °C 2.4 °C 1010 hPa SSW 9.7 km/h 11.3 km/h 35% 0 mm 5.0 W/m2
05:53 17.9 °C 2.6 °C 1010.4 hPa SSW 9.7 km/h 9.7 km/h 36% 0 mm 7.0 W/m2
05:58 17.7 °C 2.4 °C 1010.4 hPa SSW 7.9 km/h 9.7 km/h 36% 0 mm 11.0 W/m2
06:04 17.8 °C 2.5 °C 1010.4 hPa SSW 6.4 km/h 9.7 km/h 36% 0 mm 14.0 W/m2
06:09 18 °C 2.7 °C 1010.4 hPa SSW 7.9 km/h 12.9 km/h 36% 0 mm 16.0 W/m2
06:15 18.2 °C 2.9 °C 1010.4 hPa SSW 7.9 km/h 11.3 km/h 36% 0 mm 26.0 W/m2
06:20 18.4 °C 3.1 °C 1010.4 hPa SSW 11.1 km/h 11.3 km/h 36% 0 mm 40.0 W/m2
06:28 18.7 °C 2.9 °C 1010.7 hPa SSW 11.1 km/h 11.3 km/h 35% 0 mm 69.0 W/m2
07:34 20.9 °C 2.7 °C 1011.1 hPa SSW 11.1 km/h 14.5 km/h 30% 0 mm 318.0 W/m2
07:54 21.5 °C 2.7 °C 1011.1 hPa SSW 14.3 km/h 19.3 km/h 29% 0 mm 371.0 W/m2
08:09 22 °C 2.6 °C 1011.1 hPa SSW 9.7 km/h 14.5 km/h 28% 0 mm 422.0 W/m2
08:18 22.3 °C 2.4 °C 1010.7 hPa SSW 7.9 km/h 11.3 km/h 27% 0 mm 455.0 W/m2
08:25 22.7 °C 2.2 °C 1011.1 hPa SSW 13 km/h 14.5 km/h 26% 0 mm 489.0 W/m2
10:21 26.9 °C 2 °C 1010.7 hPa SW 19.5 km/h 22.5 km/h 20% 0 mm 809.0 W/m2
10:30 27.2 °C 1.6 °C 1010.7 hPa SW 13 km/h 20.9 km/h 19% 0 mm 844.0 W/m2
10:50 27.7 °C 1.2 °C 1010.7 hPa SW 9.7 km/h 17.7 km/h 18% 0 mm 875.0 W/m2
11:10 28.8 °C 0.5 °C 1010.4 hPa SSW 3.2 km/h 24.1 km/h 16% 0 mm 911.0 W/m2
11:22 29 °C -0.3 °C 1010.4 hPa SSW 7.9 km/h 12.9 km/h 15% 0 mm 928.0 W/m2
11:37 29.3 °C -1 °C 1010 hPa SSW 9.7 km/h 12.9 km/h 14% 0 mm 947.0 W/m2
11:51 29.8 °C -1.6 °C 1010 hPa SSW 6.4 km/h 9.7 km/h 13% 0 mm 963.0 W/m2
12:01 30.4 °C -2.2 °C 1010 hPa Calm   9.7 km/h 12% 0 mm 972.0 W/m2
12:12 30.4 °C -2.2 °C 1009.7 hPa Calm     12% 0 mm 974.0 W/m2
12:22 30.7 °C -2 °C 1009.7 hPa SSW 7.9 km/h 9.7 km/h 12% 0 mm 979.0 W/m2
12:37 30.9 °C -3 °C 1009.4 hPa SW 16.3 km/h 16.3 km/h 11% 0 mm 977.0 W/m2
12:52 31.2 °C -2.8 °C 1009.4 hPa SW 9.7 km/h 11.3 km/h 11% 0 mm 976.0 W/m2
13:07 31.6 °C -2.5 °C 1009 hPa Calm   14.5 km/h 11% 0 mm 972.0 W/m2
13:13 31.6 °C -2.5 °C 1009 hPa Calm   14.5 km/h 11% 0 mm 972.0 W/m2
13:22 31.7 °C -2.4 °C 1009 hPa SW 9.7 km/h 11.3 km/h 11% 0 mm 962.0 W/m2
13:38 32.1 °C -3.4 °C 1009 hPa SW 6.4 km/h 17.7 km/h 10% 0 mm 944.0 W/m2
13:44 32.1 °C -3.4 °C 1009 hPa SW 6.4 km/h 17.7 km/h 10% 0 mm 944.0 W/m2
13:53 32.1 °C -3.4 °C 1008.7 hPa Calm     10% 0 mm 926.0 W/m2
14:15 32.1 °C -3.4 °C 1008.7 hPa Calm     10% 0 mm 907.0 W/m2
14:32 32.7 °C -2.9 °C 1008.4 hPa SW 13 km/h 25.7 km/h 10% 0 mm 877.0 W/m2
14:44 32.9 °C -2.7 °C 1008 hPa Calm   11.3 km/h 10% 0 mm 838.0 W/m2
15:11 32.6 °C -3 °C 1008 hPa Calm   19.3 km/h 10% 0 mm 789.0 W/m2
15:26 33.1 °C -4 °C 1007.7 hPa Calm     9% 0 mm 756.0 W/m2
15:41 33.3 °C -2.4 °C 1007.7 hPa SW 20.9 km/h 27.4 km/h 10% 0 mm 712.0 W/m2
15:50 33.2 °C -2.5 °C 1007.7 hPa SSW 13 km/h 27.4 km/h 10% 0 mm 668.0 W/m2
16:10 32.9 °C -2.7 °C 1007.7 hPa SW 16.3 km/h 24.1 km/h 10% 0 mm 622.0 W/m2
16:24 33.2 °C -2.5 °C 1007.7 hPa SSW 19.5 km/h 22.5 km/h 10% 0 mm 577.0 W/m2
16:35 32.9 °C -2.7 °C 1007.7 hPa Calm   8 km/h 10% 0 mm 543.0 W/m2
17:00 32.9 °C -2.7 °C 1007.7 hPa SW 14.3 km/h 22.5 km/h 10% 0 mm 445.0 W/m2
17:20 33.1 °C -2.6 °C 1007.7 hPa South 13 km/h 24.1 km/h 10% 0 mm 392.0 W/m2
17:30 32.9 °C -2.7 °C 1007.3 hPa SSW 25.9 km/h 27.4 km/h 10% 0 mm 357.0 W/m2
17:35 32.8 °C -2.8 °C 1007.3 hPa South 22.7 km/h 27.4 km/h 10% 0 mm 322.0 W/m2
17:50 32.7 °C -2.9 °C 1007.7 hPa South 16.3 km/h 29 km/h 10% 0 mm 272.0 W/m2
18:21 31.9 °C -3.5 °C 1007.7 hPa South 17.7 km/h 24.1 km/h 10% 0 mm 151.0 W/m2
18:40 31.6 °C -3.7 °C 1007.7 hPa South 19.5 km/h 22.5 km/h 10% 0 mm 97.0 W/m2
18:46 31.6 °C -3.7 °C 1007.7 hPa South 19.5 km/h 27.4 km/h 10% 0 mm 62.0 W/m2
18:56 31.3 °C -4 °C 1008 hPa South 20.9 km/h 25.7 km/h 10% 0 mm 19.0 W/m2
19:18 30.9 °C -4.3 °C 1008.4 hPa SSW 16.3 km/h 22.5 km/h 10% 0 mm 11.0 W/m2
19:30 30.6 °C -3.2 °C 1008.4 hPa SSW 11.1 km/h 19.3 km/h 11% 0 mm 0.0 W/m2
19:36 30.4 °C -3.4 °C 1008.4 hPa SSW 13 km/h 25.7 km/h 11% 0 mm 0.0 W/m2
19:41 30.3 °C -3.4 °C 1008.7 hPa South 22.7 km/h 24.1 km/h 11% 0 mm 0.0 W/m2
19:53 30.1 °C -3.6 °C 1008.7 hPa SSE 16.3 km/h 22.5 km/h 11% 0 mm 0.0 W/m2
23:53 24 °C 7.2 °C 1010 hPa SSW 16.3 km/h 24.1 km/h 34% 0 mm 0.0 W/m2
Canyon Roadhouse, Fishriver Canyon, Namibia
Compliments of Weather Underground - 2 mb